createdAt,value
2019-03-04T00:01:17.552Z,9.91
2019-03-04T00:03:43.376Z,9.95
2019-03-04T00:06:09.193Z,9.91
2019-03-04T00:08:35.034Z,9.95
2019-03-04T00:11:00.849Z,9.98
2019-03-04T00:14:08.348Z,9.99
2019-03-04T00:16:54.038Z,10.02
2019-03-04T00:19:19.923Z,10.02
2019-03-04T00:21:45.720Z,10.05
2019-03-04T00:24:11.562Z,10.01
2019-03-04T00:26:37.373Z,10.04
2019-03-04T00:29:03.209Z,9.90
2019-03-04T00:31:29.024Z,9.98
2019-03-04T00:33:54.859Z,9.96
2019-03-04T00:36:20.698Z,9.90
2019-03-04T00:38:46.553Z,9.90
2019-03-04T00:41:12.365Z,9.90
2019-03-04T00:43:38.206Z,9.87
2019-03-04T00:46:45.669Z,9.84
2019-03-04T00:49:11.528Z,9.78
2019-03-04T00:51:37.345Z,9.78
2019-03-04T00:54:03.201Z,9.70
2019-03-04T00:56:29.037Z,9.70
2019-03-04T00:58:54.855Z,9.66
2019-03-04T01:01:20.671Z,9.62
2019-03-04T01:03:46.494Z,9.58
2019-03-04T01:06:12.337Z,9.62
2019-03-04T01:08:38.142Z,9.59
2019-03-04T01:11:45.629Z,9.66
2019-03-04T01:14:11.440Z,9.63
2019-03-04T01:16:37.282Z,9.53
2019-03-04T01:19:03.117Z,9.50
2019-03-04T01:21:28.938Z,9.51
2019-03-04T01:23:54.760Z,9.47
2019-03-04T01:26:20.612Z,9.52
2019-03-04T01:28:46.420Z,9.49
2019-03-04T01:31:12.222Z,9.56
2019-03-04T01:33:38.045Z,9.54
2019-03-04T01:36:23.746Z,9.55
2019-03-04T01:38:49.597Z,9.56
2019-03-04T01:41:15.415Z,9.53
2019-03-04T01:43:41.262Z,9.55
2019-03-04T01:46:07.073Z,9.41
2019-03-04T01:48:32.892Z,9.48
2019-03-04T01:50:58.711Z,9.53
2019-03-04T01:53:24.575Z,9.51
2019-03-04T01:55:50.402Z,9.47
2019-03-04T01:58:16.264Z,9.56
2019-03-04T02:00:42.085Z,9.52
2019-03-04T02:03:07.906Z,9.53
2019-03-04T02:05:33.754Z,9.53
2019-03-04T02:07:59.556Z,9.49
2019-03-04T02:10:25.377Z,9.35
2019-03-04T02:12:51.187Z,9.25
2019-03-04T02:15:36.878Z,9.03
2019-03-04T02:18:02.711Z,9.13
2019-03-04T02:20:28.529Z,9.07
2019-03-04T02:22:54.347Z,9.08
2019-03-04T02:26:01.832Z,9.01
2019-03-04T02:28:47.531Z,8.84
2019-03-04T02:31:13.369Z,8.84
2019-03-04T02:33:39.195Z,8.75
2019-03-04T02:36:24.906Z,8.61
2019-03-04T02:38:50.731Z,8.70
2019-03-04T02:41:16.541Z,8.55
2019-03-04T02:43:42.384Z,8.73
2019-03-04T02:46:08.197Z,8.80
2019-03-04T02:48:34.021Z,8.79
2019-03-04T02:50:59.852Z,8.65
2019-03-04T02:53:25.695Z,8.45
2019-03-04T02:55:51.520Z,8.46
2019-03-04T02:58:17.333Z,8.33
2019-03-04T03:00:43.147Z,8.32
2019-03-04T03:03:08.969Z,8.62
2019-03-04T03:05:35.143Z,8.55
2019-03-04T03:08:00.983Z,8.48
2019-03-04T03:10:26.808Z,8.45
2019-03-04T03:12:52.631Z,8.58
2019-03-04T03:18:26.368Z,8.62
2019-03-04T03:21:12.081Z,8.53
2019-03-04T03:23:37.912Z,8.41
2019-03-04T03:26:03.726Z,8.41
2019-03-04T03:28:29.584Z,8.38
2019-03-04T03:30:55.444Z,8.38
2019-03-04T03:33:21.442Z,8.35
2019-03-04T03:36:07.135Z,8.35
2019-03-04T03:38:52.835Z,8.04
2019-03-04T03:41:18.681Z,8.04
2019-03-04T03:43:44.520Z,8.10
2019-03-04T03:46:10.317Z,8.04
2019-03-04T03:48:36.130Z,8.02
2019-03-04T03:51:01.968Z,8.05
2019-03-04T03:53:27.789Z,7.98
2019-03-04T03:56:13.595Z,7.87
2019-03-04T03:58:59.290Z,7.58
2019-03-04T04:01:45.304Z,7.51
2019-03-04T04:04:31.372Z,7.51
2019-03-04T04:07:17.080Z,7.48
2019-03-04T04:09:42.897Z,7.48
2019-03-04T04:12:08.732Z,7.44
2019-03-04T04:14:34.560Z,7.26
2019-03-04T04:17:00.400Z,7.25
2019-03-04T04:19:26.208Z,7.05
2019-03-04T04:21:52.056Z,6.94
2019-03-04T04:24:17.877Z,6.59
2019-03-04T04:26:43.691Z,6.52
2019-03-04T04:31:56.868Z,6.55
2019-03-04T04:34:22.677Z,6.83
2019-03-04T04:36:48.502Z,6.72
2019-03-04T04:39:14.315Z,6.64
2019-03-04T04:41:40.140Z,6.68
2019-03-04T04:47:13.199Z,6.58
2019-03-04T04:49:39.005Z,6.69
2019-03-04T04:52:04.848Z,6.95
2019-03-04T04:54:30.678Z,6.73
2019-03-04T04:56:56.514Z,6.69
2019-03-04T04:59:22.341Z,6.53
2019-03-04T05:01:48.201Z,6.51
2019-03-04T05:04:14.023Z,6.49
2019-03-04T05:06:39.860Z,6.69
2019-03-04T05:09:47.338Z,6.87
2019-03-04T05:12:13.155Z,6.95
2019-03-04T05:14:38.975Z,6.92
2019-03-04T05:17:04.804Z,6.71
2019-03-04T05:19:30.646Z,6.59
2019-03-04T05:21:56.454Z,6.63
2019-03-04T05:24:22.273Z,6.77
2019-03-04T05:26:48.098Z,6.88
2019-03-04T05:29:13.932Z,6.93
2019-03-04T05:31:39.760Z,7.02
2019-03-04T05:34:05.582Z,7.04
2019-03-04T05:36:51.276Z,7.06
2019-03-04T05:39:17.113Z,7.04
2019-03-04T05:41:42.922Z,6.95
2019-03-04T05:44:08.763Z,6.97
2019-03-04T05:46:34.570Z,6.95
2019-03-04T05:49:00.410Z,6.95
2019-03-04T05:51:26.232Z,6.94
2019-03-04T05:53:52.068Z,6.92
2019-03-04T05:56:17.903Z,6.90
2019-03-04T05:58:43.722Z,6.87
2019-03-04T06:01:29.911Z,6.86
2019-03-04T06:04:37.716Z,6.84
2019-03-04T06:07:43.292Z,7.05
2019-03-04T06:10:50.759Z,7.05
2019-03-04T06:13:16.619Z,7.07
2019-03-04T06:15:42.417Z,7.05
2019-03-04T06:18:08.235Z,7.00
2019-03-04T06:20:34.078Z,6.98
2019-03-04T06:22:59.903Z,6.98
2019-03-04T06:26:07.406Z,6.92
2019-03-04T06:28:53.107Z,6.87
2019-03-04T06:31:18.959Z,6.87
2019-03-04T06:33:44.776Z,6.86
2019-03-04T06:36:10.610Z,6.87
2019-03-04T06:38:36.436Z,6.85
2019-03-04T06:41:02.254Z,6.89
2019-03-04T06:43:28.095Z,6.92
2019-03-04T06:45:53.914Z,6.97
2019-03-04T06:48:19.743Z,6.98
2019-03-04T06:51:27.196Z,7.01
2019-03-04T06:54:06.869Z,7.35
2019-03-04T06:57:12.485Z,7.35
2019-03-04T07:00:20.026Z,7.63
2019-03-04T07:02:45.805Z,7.63
2019-03-04T07:05:51.355Z,7.60
2019-03-04T07:08:58.834Z,7.57
2019-03-04T07:11:24.652Z,7.57
2019-03-04T07:13:50.486Z,7.51
2019-03-04T07:16:16.357Z,7.54
2019-03-04T07:18:42.153Z,7.58
2019-03-04T07:21:07.966Z,7.64
2019-03-04T07:23:33.800Z,7.78
2019-03-04T07:25:59.622Z,7.95
2019-03-04T07:28:25.476Z,7.94
2019-03-04T07:30:51.295Z,7.90
2019-03-04T07:33:17.116Z,8.00
2019-03-04T07:36:02.834Z,8.02
2019-03-04T07:39:08.430Z,8.15
2019-03-04T07:41:54.142Z,8.27
2019-03-04T07:44:19.976Z,8.27
2019-03-04T07:46:45.807Z,8.65
2019-03-04T07:49:31.608Z,8.86
2019-03-04T07:52:17.333Z,9.05
2019-03-04T07:54:43.197Z,9.05
2019-03-04T07:57:09.033Z,9.14
2019-03-04T07:59:34.846Z,9.24
2019-03-04T08:02:00.677Z,9.26
2019-03-04T08:04:26.514Z,9.31
2019-03-04T08:10:32.387Z,9.46
2019-03-04T08:13:37.949Z,9.46
2019-03-04T08:16:45.431Z,9.61
2019-03-04T08:19:11.269Z,9.55
2019-03-04T08:21:37.102Z,9.79
2019-03-04T08:24:44.580Z,9.83
2019-03-04T08:27:10.430Z,9.93
2019-03-04T08:29:36.245Z,10.02
2019-03-04T08:32:02.099Z,10.21
2019-03-04T08:34:31.066Z,10.38
2019-03-04T08:36:55.650Z,10.32
2019-03-04T08:39:22.970Z,10.43
2019-03-04T08:42:09.092Z,10.77
2019-03-04T08:44:34.935Z,10.77
2019-03-04T08:47:00.765Z,11.02
2019-03-04T08:49:26.635Z,11.13
2019-03-04T08:51:52.468Z,11.17
2019-03-04T08:54:18.316Z,11.23
2019-03-04T08:56:44.142Z,11.19
2019-03-04T08:59:09.977Z,11.27
2019-03-04T09:01:35.809Z,11.36
2019-03-04T09:04:01.665Z,11.53
2019-03-04T09:06:27.493Z,11.64
2019-03-04T09:08:53.428Z,11.62
2019-03-04T09:11:19.273Z,11.61
2019-03-04T09:13:45.101Z,11.62
2019-03-04T09:16:30.912Z,11.61
2019-03-04T09:19:16.606Z,11.67
2019-03-04T09:22:02.339Z,11.61
2019-03-04T09:24:48.059Z,11.53
2019-03-04T09:27:13.875Z,11.53
2019-03-04T09:29:39.723Z,11.46
2019-03-04T09:32:05.528Z,11.46
2019-03-04T09:34:31.349Z,11.46
2019-03-04T09:36:57.213Z,11.67
2019-03-04T09:39:23.049Z,11.73
2019-03-04T09:44:22.761Z,11.82
2019-03-04T09:46:48.604Z,11.87
2019-03-04T09:49:14.414Z,11.86
2019-03-04T09:51:40.249Z,11.86
2019-03-04T09:54:06.080Z,11.79
2019-03-04T09:56:31.935Z,11.68
2019-03-04T09:58:57.758Z,11.64
2019-03-04T10:02:05.251Z,11.62
2019-03-04T10:05:10.826Z,11.64
2019-03-04T10:08:18.326Z,11.64
2019-03-04T10:11:23.924Z,11.67
2019-03-04T10:14:29.568Z,11.60
2019-03-04T10:17:37.111Z,11.50
2019-03-04T10:20:44.585Z,11.54
2019-03-04T10:23:52.081Z,11.54
2019-03-04T10:26:57.680Z,11.29
2019-03-04T10:30:05.448Z,11.28
2019-03-04T10:33:11.015Z,11.06
2019-03-04T10:36:16.621Z,11.10
2019-03-04T10:39:22.667Z,11.10
2019-03-04T10:42:28.270Z,11.13
2019-03-04T10:45:35.789Z,11.15
2019-03-04T10:48:21.506Z,11.13
2019-03-04T10:51:07.199Z,11.17
2019-03-04T10:53:45.983Z,11.23
2019-03-04T10:56:24.988Z,11.23
2019-03-04T10:58:50.821Z,11.23
2019-03-04T11:01:16.669Z,11.27
2019-03-04T11:03:42.493Z,11.28
2019-03-04T11:06:08.320Z,11.30
2019-03-04T11:08:34.144Z,11.37
2019-03-04T11:11:00.005Z,11.40
2019-03-04T11:13:25.822Z,11.45
2019-03-04T11:15:51.651Z,11.48
2019-03-04T11:18:17.493Z,11.53
2019-03-04T11:20:43.319Z,11.59
2019-03-04T11:23:09.168Z,11.64
2019-03-04T11:25:35.002Z,11.61
2019-03-04T11:28:00.853Z,11.59
2019-03-04T11:30:46.545Z,11.61
2019-03-04T11:33:32.296Z,11.59
2019-03-04T11:35:58.157Z,11.59
2019-03-04T11:39:05.615Z,11.66
2019-03-04T11:41:31.435Z,11.67
2019-03-04T11:43:57.249Z,11.65
2019-03-04T11:49:30.298Z,11.69
2019-03-04T11:51:56.132Z,11.69
2019-03-04T11:54:21.970Z,11.71
2019-03-04T11:56:47.798Z,11.69
2019-03-04T11:59:13.639Z,11.69
2019-03-04T12:04:26.816Z,11.57
2019-03-04T12:06:52.645Z,11.46
2019-03-04T12:09:18.469Z,11.40
2019-03-04T12:11:44.400Z,11.33
2019-03-04T12:14:10.258Z,11.28
2019-03-04T12:16:36.062Z,11.24
2019-03-04T12:19:01.873Z,11.21
2019-03-04T12:21:47.687Z,11.16
2019-03-04T12:24:33.405Z,11.09
2019-03-04T12:26:59.229Z,11.09
2019-03-04T12:29:25.360Z,11.11
2019-03-04T12:35:26.865Z,11.13
2019-03-04T12:37:52.691Z,11.13
2019-03-04T12:41:00.158Z,11.10
2019-03-04T12:43:25.986Z,11.11
2019-03-04T12:45:51.818Z,11.14
2019-03-04T12:48:17.743Z,11.17
2019-03-04T12:50:43.547Z,11.16
2019-03-04T12:53:09.402Z,11.24
2019-03-04T12:55:35.241Z,11.25
2019-03-04T13:01:14.712Z,11.21
2019-03-04T13:03:40.547Z,11.21
2019-03-04T13:06:06.365Z,11.09
2019-03-04T13:08:32.192Z,11.07
2019-03-04T13:10:58.003Z,11.05
2019-03-04T13:13:23.819Z,11.09
2019-03-04T13:16:31.284Z,11.07
2019-03-04T13:18:57.134Z,11.06
2019-03-04T13:21:22.954Z,11.06
2019-03-04T13:23:48.797Z,11.10
2019-03-04T13:26:14.614Z,11.08
2019-03-04T13:28:40.441Z,11.01
2019-03-04T13:31:06.358Z,10.95
2019-03-04T13:33:32.216Z,10.93
2019-03-04T13:35:58.036Z,10.88
2019-03-04T13:38:23.840Z,10.90
2019-03-04T13:41:09.661Z,10.83
2019-03-04T13:43:55.464Z,10.77
2019-03-04T13:46:41.147Z,10.72
2019-03-04T13:49:26.987Z,10.72
2019-03-04T13:52:12.677Z,10.67
2019-03-04T13:54:38.542Z,10.67
2019-03-04T13:57:04.361Z,10.65
2019-03-04T13:59:30.191Z,10.60
2019-03-04T14:01:56.010Z,10.58
2019-03-04T14:04:21.845Z,10.53
2019-03-04T14:06:47.670Z,10.50
2019-03-04T14:12:20.720Z,10.45
2019-03-04T14:14:46.558Z,10.45
2019-03-04T14:17:12.379Z,10.40
2019-03-04T14:19:38.207Z,10.38
2019-03-04T14:22:04.037Z,10.38
2019-03-04T14:24:29.855Z,10.38
2019-03-04T14:26:55.702Z,10.34
2019-03-04T14:29:21.524Z,10.32
2019-03-04T14:31:47.347Z,10.32
2019-03-04T14:34:13.173Z,10.31
2019-03-04T14:36:38.993Z,10.26
2019-03-04T14:39:05.005Z,10.26
2019-03-04T14:41:30.850Z,10.27
2019-03-04T14:43:56.658Z,10.25
2019-03-04T14:46:22.688Z,10.23
2019-03-04T14:49:15.225Z,10.18
2019-03-04T14:51:41.063Z,10.18
2019-03-04T14:54:08.547Z,10.17
2019-03-04T14:56:34.630Z,10.19
2019-03-04T14:59:10.344Z,10.14
2019-03-04T15:01:28.185Z,10.16
2019-03-04T15:03:54.001Z,10.08
2019-03-04T15:06:19.832Z,10.12
2019-03-04T15:08:45.648Z,10.12
2019-03-04T15:11:53.110Z,10.10
2019-03-04T15:14:18.959Z,10.13
2019-03-04T15:16:44.779Z,10.14
2019-03-04T15:19:10.612Z,10.16
2019-03-04T15:21:36.431Z,10.14
2019-03-04T15:24:02.280Z,10.13
2019-03-04T15:26:28.099Z,10.17
2019-03-04T15:29:13.900Z,10.18
2019-03-04T15:31:39.715Z,10.17
2019-03-04T15:34:05.548Z,10.14
2019-03-04T15:36:31.379Z,10.13
2019-03-04T15:38:57.198Z,10.17
2019-03-04T15:41:23.025Z,10.19
2019-03-04T15:43:48.852Z,10.18
2019-03-04T15:46:14.659Z,10.17
2019-03-04T15:48:40.470Z,10.09
2019-03-04T15:51:06.287Z,10.07
2019-03-04T15:53:32.148Z,10.01
2019-03-04T15:55:57.980Z,9.90
2019-03-04T15:58:24.078Z,9.87
2019-03-04T16:01:09.803Z,9.90
2019-03-04T16:03:36.770Z,9.90
2019-03-04T16:06:03.775Z,9.90
2019-03-04T16:08:49.501Z,9.83
2019-03-04T16:11:35.228Z,9.80
2019-03-04T16:14:20.941Z,9.67
2019-03-04T16:17:06.867Z,9.62
2019-03-04T16:19:32.711Z,9.62
2019-03-04T16:21:58.537Z,9.57
2019-03-04T16:24:24.352Z,9.53
2019-03-04T16:26:50.180Z,9.49
2019-03-04T16:29:15.987Z,9.48
2019-03-04T16:31:41.820Z,9.53
2019-03-04T16:34:07.636Z,9.54
2019-03-04T16:36:33.481Z,9.46
2019-03-04T16:38:59.359Z,9.49
2019-03-04T16:41:25.143Z,9.45
2019-03-04T16:43:50.960Z,9.44
2019-03-04T16:46:16.770Z,9.41
2019-03-04T16:48:42.594Z,9.40
2019-03-04T16:51:08.407Z,9.37
2019-03-04T16:53:34.251Z,9.35
2019-03-04T16:56:00.062Z,9.34
2019-03-04T16:58:25.914Z,9.34
2019-03-04T17:00:51.823Z,9.33
2019-03-04T17:03:17.629Z,9.34
2019-03-04T17:05:43.484Z,9.35
2019-03-04T17:08:09.291Z,9.32
2019-03-04T17:10:35.120Z,9.34
2019-03-04T17:13:00.930Z,9.34
2019-03-04T17:15:26.872Z,9.34
2019-03-04T17:17:52.714Z,9.33
2019-03-04T17:21:00.190Z,9.33
2019-03-04T17:23:26.114Z,9.24
2019-03-04T17:25:51.945Z,9.24
2019-03-04T17:28:59.722Z,9.18
2019-03-04T17:31:25.568Z,8.99
2019-03-04T17:33:51.376Z,7.79
2019-03-04T17:36:17.231Z,6.91
2019-03-04T17:41:50.275Z,5.92
2019-03-04T17:44:57.733Z,5.69
2019-03-04T17:47:23.569Z,5.66
2019-03-04T17:49:49.382Z,5.61
2019-03-04T17:52:15.215Z,5.71
2019-03-04T17:54:41.033Z,5.71
2019-03-04T17:57:48.507Z,5.76
2019-03-04T18:00:35.686Z,5.75
2019-03-04T18:03:01.529Z,5.77
2019-03-04T18:05:27.331Z,5.73
2019-03-04T18:07:53.177Z,5.71
2019-03-04T18:10:19.006Z,5.71
2019-03-04T18:13:04.811Z,5.70
2019-03-04T18:15:50.552Z,5.70
2019-03-04T18:18:16.374Z,5.70
2019-03-04T18:20:42.210Z,5.70
2019-03-04T18:23:08.037Z,5.73
2019-03-04T18:26:15.531Z,5.82
2019-03-04T18:29:21.106Z,5.77
2019-03-04T18:32:28.612Z,5.75
2019-03-04T18:35:36.138Z,5.74
2019-03-04T18:38:43.602Z,5.74
2019-03-04T18:41:51.084Z,5.74
2019-03-04T18:44:56.658Z,5.71
2019-03-04T18:48:04.133Z,5.67
2019-03-04T18:50:29.967Z,5.71
2019-03-04T18:52:55.794Z,5.66
2019-03-04T18:55:41.597Z,5.64
2019-03-04T18:58:27.318Z,5.54
2019-03-04T19:00:53.145Z,5.54
2019-03-04T19:03:18.987Z,5.45
2019-03-04T19:05:44.831Z,5.48
2019-03-04T19:08:10.689Z,5.43
2019-03-04T19:10:36.800Z,5.43
2019-03-04T19:13:02.647Z,5.41
2019-03-04T19:15:28.475Z,5.37
2019-03-04T19:17:54.321Z,5.30
2019-03-04T19:21:01.804Z,5.29
2019-03-04T19:23:47.506Z,5.21
2019-03-04T19:26:13.345Z,5.21
2019-03-04T19:28:39.164Z,5.14
2019-03-04T19:31:04.971Z,5.12
2019-03-04T19:33:30.836Z,5.02
2019-03-04T19:36:16.527Z,4.94
2019-03-04T19:38:42.401Z,4.95
2019-03-04T19:41:08.224Z,4.85
2019-03-04T19:43:34.045Z,4.89
2019-03-04T19:45:59.891Z,4.82
2019-03-04T19:48:25.713Z,4.82
2019-03-04T19:53:45.535Z,4.73
2019-03-04T19:56:11.371Z,4.76
2019-03-04T19:58:37.177Z,4.82
2019-03-04T20:01:44.651Z,4.75
2019-03-04T20:04:10.470Z,4.63
2019-03-04T20:06:36.305Z,4.61
2019-03-04T20:09:43.781Z,4.61
2019-03-04T20:12:51.250Z,4.66
2019-03-04T20:15:36.935Z,4.48
2019-03-04T20:18:44.408Z,4.51
2019-03-04T20:21:30.123Z,4.43
2019-03-04T20:23:55.952Z,4.43
2019-03-04T20:26:22.112Z,4.53
2019-03-04T20:28:47.932Z,4.37
2019-03-04T20:31:33.772Z,4.55
2019-03-04T20:33:59.590Z,4.47
2019-03-04T20:37:07.065Z,4.53
2019-03-04T20:39:32.883Z,4.56
2019-03-04T20:42:00.716Z,4.55
2019-03-04T20:44:26.560Z,4.54
2019-03-04T20:46:52.374Z,4.52
2019-03-04T20:49:38.174Z,4.52
2019-03-04T20:52:03.990Z,4.49
2019-03-04T20:54:29.844Z,4.37
2019-03-04T20:56:55.675Z,4.39
2019-03-04T20:59:21.506Z,4.34
2019-03-04T21:02:07.300Z,4.35
2019-03-04T21:04:33.128Z,4.33
2019-03-04T21:07:40.594Z,4.29
2019-03-04T21:10:48.098Z,4.28
2019-03-04T21:16:10.849Z,4.17
2019-03-04T21:18:56.660Z,4.17
2019-03-04T21:21:22.472Z,4.10
2019-03-04T21:23:48.657Z,4.04
2019-03-04T21:26:57.805Z,4.01
2019-03-04T21:30:05.296Z,3.99
2019-03-04T21:33:12.762Z,3.98
2019-03-04T21:36:18.460Z,3.95
2019-03-04T21:38:44.268Z,3.94
2019-03-04T21:41:51.760Z,3.93
2019-03-04T21:45:00.110Z,3.94
2019-03-04T21:48:06.714Z,3.96
2019-03-04T21:51:14.191Z,3.99
2019-03-04T21:53:59.882Z,3.99
2019-03-04T21:57:07.374Z,3.99
2019-03-04T21:59:33.198Z,3.97
2019-03-04T22:02:38.779Z,3.92
2019-03-04T22:05:24.451Z,3.93
2019-03-04T22:08:10.289Z,3.85
2019-03-04T22:10:36.190Z,3.88
2019-03-04T22:13:02.038Z,3.97
2019-03-04T22:15:47.798Z,3.96
2019-03-04T22:18:13.645Z,4.00
2019-03-04T22:20:39.447Z,4.03
2019-03-04T22:25:42.647Z,4.03
2019-03-04T22:28:08.461Z,4.08
2019-03-04T22:30:34.290Z,4.12
2019-03-04T22:33:00.147Z,4.16
2019-03-04T22:35:45.949Z,4.20
2019-03-04T22:38:11.837Z,4.23
2019-03-04T22:40:37.643Z,4.28
2019-03-04T22:43:03.476Z,4.32
2019-03-04T22:45:29.297Z,4.33
2019-03-04T22:47:55.128Z,4.33
2019-03-04T22:51:02.637Z,4.34
2019-03-04T22:53:28.451Z,4.36
2019-03-04T22:56:35.961Z,4.36
2019-03-04T22:59:01.784Z,4.40
2019-03-04T23:02:09.262Z,4.41
2019-03-04T23:04:35.088Z,4.42
2019-03-04T23:07:42.587Z,4.47
2019-03-04T23:10:50.083Z,4.44
2019-03-04T23:13:55.650Z,4.45
2019-03-04T23:17:03.146Z,4.47
2019-03-04T23:19:28.975Z,4.43
2019-03-04T23:21:54.809Z,4.53
2019-03-04T23:24:20.660Z,4.54
2019-03-04T23:26:46.524Z,4.55
2019-03-04T23:29:12.347Z,4.57
2019-03-04T23:31:38.172Z,4.54
2019-03-04T23:34:04.015Z,4.55
2019-03-04T23:36:29.836Z,4.51
2019-03-04T23:38:55.675Z,4.53
2019-03-04T23:41:21.613Z,4.54
2019-03-04T23:43:47.449Z,4.53
2019-03-04T23:46:13.275Z,4.53
2019-03-04T23:48:39.113Z,4.55
2019-03-04T23:51:04.951Z,4.56
2019-03-04T23:53:31.293Z,4.59
2019-03-04T23:55:58.529Z,4.63
2019-03-04T23:58:24.357Z,4.58
